createdAt,value
2023-04-30T00:00:10.455Z,3.47
2023-04-30T00:02:58.029Z,2.43
2023-04-30T00:05:45.730Z,3.13
2023-04-30T00:08:33.095Z,3.03
2023-04-30T00:11:20.737Z,3.20
2023-04-30T00:14:08.107Z,3.07
2023-04-30T00:16:55.467Z,2.80
2023-04-30T00:19:43.123Z,2.90
2023-04-30T00:22:30.499Z,3.07
2023-04-30T00:25:17.981Z,3.00
2023-04-30T00:28:05.445Z,2.97
2023-04-30T00:30:52.789Z,2.80
2023-04-30T00:33:40.139Z,3.27
2023-04-30T00:36:27.510Z,3.70
2023-04-30T00:39:15.175Z,3.20
2023-04-30T00:42:02.730Z,2.60
2023-04-30T00:44:50.146Z,2.83
2023-04-30T00:47:37.586Z,3.00
2023-04-30T00:50:25.080Z,3.00
2023-04-30T00:53:12.788Z,3.20
2023-04-30T00:56:00.309Z,2.90
2023-04-30T00:58:48.257Z,3.10
2023-04-30T01:01:35.784Z,2.97
2023-04-30T01:04:23.260Z,3.30
2023-04-30T01:07:10.799Z,2.73
2023-04-30T01:09:58.456Z,2.93
2023-04-30T01:13:08.063Z,2.80
2023-04-30T01:15:58.377Z,2.87
2023-04-30T01:18:52.559Z,2.90
2023-04-30T01:21:41.578Z,3.23
2023-04-30T01:24:49.756Z,3.30
2023-04-30T01:27:46.401Z,3.33
2023-04-30T01:30:34.448Z,3.10
2023-04-30T01:33:21.831Z,3.33
2023-04-30T01:36:09.189Z,3.03
2023-04-30T01:38:56.927Z,3.97
2023-04-30T01:41:57.676Z,3.63
2023-04-30T01:44:57.349Z,3.33
2023-04-30T01:47:53.833Z,3.30
2023-04-30T01:50:41.227Z,3.37
2023-04-30T01:53:33.374Z,3.17
2023-04-30T01:56:47.075Z,3.40
2023-04-30T01:59:36.245Z,3.10
2023-04-30T02:02:23.721Z,3.30
2023-04-30T02:05:11.164Z,2.67
2023-04-30T02:07:58.590Z,3.07
2023-04-30T02:10:45.989Z,3.00
2023-04-30T02:13:33.483Z,3.17
2023-04-30T02:16:20.978Z,2.60
2023-04-30T02:19:08.336Z,3.13
2023-04-30T02:21:55.713Z,3.07
2023-04-30T02:24:43.084Z,2.93
2023-04-30T02:27:31.441Z,3.20
2023-04-30T02:30:20.771Z,3.40
2023-04-30T02:33:08.291Z,3.20
2023-04-30T02:35:55.742Z,3.37
2023-04-30T02:38:43.202Z,3.47
2023-04-30T02:41:30.555Z,3.60
2023-04-30T02:44:17.938Z,3.63
2023-04-30T02:47:05.442Z,3.77
2023-04-30T02:49:53.037Z,3.17
2023-04-30T02:52:40.709Z,2.80
2023-04-30T02:55:28.275Z,3.13
2023-04-30T02:58:15.681Z,3.00
2023-04-30T03:01:03.121Z,3.37
2023-04-30T03:03:50.515Z,3.30
2023-04-30T03:06:37.986Z,2.83
2023-04-30T03:09:25.387Z,3.20
2023-04-30T03:12:14.474Z,3.10
2023-04-30T03:15:02.784Z,3.20
2023-04-30T03:17:50.472Z,3.13
2023-04-30T03:20:37.912Z,3.17
2023-04-30T03:23:25.767Z,2.70
2023-04-30T03:26:13.202Z,3.20
2023-04-30T03:29:02.029Z,3.30
2023-04-30T03:31:49.440Z,3.37
2023-04-30T03:34:36.880Z,3.27
2023-04-30T03:37:24.279Z,2.80
2023-04-30T03:40:12.017Z,3.40
2023-04-30T03:42:59.353Z,3.30
2023-04-30T03:45:46.762Z,3.50
2023-04-30T03:48:34.170Z,3.33
2023-04-30T03:51:21.751Z,4.10
2023-04-30T03:54:09.350Z,3.30
2023-04-30T03:56:56.732Z,3.43
2023-04-30T03:59:44.122Z,3.47
2023-04-30T04:02:32.439Z,3.57
2023-04-30T04:05:19.950Z,3.60
2023-04-30T04:08:07.456Z,3.17
2023-04-30T04:10:54.841Z,3.90
2023-04-30T04:13:42.164Z,3.43
2023-04-30T04:16:29.630Z,3.93
2023-04-30T04:19:17.022Z,3.80
2023-04-30T04:22:04.859Z,3.07
2023-04-30T04:24:52.216Z,3.07
2023-04-30T04:27:39.563Z,3.37
2023-04-30T04:30:27.259Z,3.00
2023-04-30T04:33:14.603Z,3.27
2023-04-30T04:36:01.991Z,3.00
2023-04-30T04:38:49.347Z,3.10
2023-04-30T04:41:37.046Z,3.20
2023-04-30T04:44:24.446Z,3.57
2023-04-30T04:47:12.817Z,3.60
2023-04-30T04:50:00.629Z,3.00
2023-04-30T04:52:48.050Z,2.97
2023-04-30T04:55:35.847Z,3.27
2023-04-30T04:58:23.236Z,3.20
2023-04-30T05:01:10.693Z,3.47
2023-04-30T05:03:58.193Z,4.10
2023-04-30T05:06:46.195Z,3.90
2023-04-30T05:09:33.675Z,3.90
2023-04-30T05:12:21.074Z,3.83
2023-04-30T05:15:08.720Z,3.07
2023-04-30T05:17:56.164Z,3.30
2023-04-30T05:20:43.574Z,3.83
2023-04-30T05:23:30.966Z,3.67
2023-04-30T05:26:18.370Z,3.47
2023-04-30T05:29:05.708Z,3.73
2023-04-30T05:31:53.341Z,4.30
2023-04-30T05:34:40.765Z,3.50
2023-04-30T05:37:28.175Z,3.90
2023-04-30T05:40:15.805Z,3.70
2023-04-30T05:43:04.826Z,3.50
2023-04-30T05:45:52.275Z,4.00
2023-04-30T05:48:40.054Z,3.43
2023-04-30T05:51:27.922Z,4.17
2023-04-30T05:54:15.372Z,3.50
2023-04-30T05:57:02.784Z,3.87
2023-04-30T05:59:50.242Z,3.67
2023-04-30T06:02:37.747Z,3.90
2023-04-30T06:05:25.252Z,3.53
2023-04-30T06:08:12.695Z,3.40
2023-04-30T06:11:00.606Z,3.50
2023-04-30T06:13:49.416Z,3.30
2023-04-30T06:16:36.846Z,3.30
2023-04-30T06:19:24.256Z,3.37
2023-04-30T06:22:11.734Z,3.30
2023-04-30T06:24:59.104Z,2.80
2023-04-30T06:27:46.593Z,3.97
2023-04-30T06:30:34.301Z,3.13
2023-04-30T06:33:22.038Z,2.80
2023-04-30T06:36:09.393Z,3.23
2023-04-30T06:38:56.759Z,2.93
2023-04-30T06:41:44.329Z,3.13
2023-04-30T06:44:31.888Z,2.70
2023-04-30T06:47:19.272Z,2.63
2023-04-30T06:50:07.075Z,2.90
2023-04-30T06:52:54.436Z,3.20
2023-04-30T06:55:42.963Z,2.70
2023-04-30T06:58:30.396Z,3.17
2023-04-30T07:01:17.870Z,2.67
2023-04-30T07:04:05.414Z,2.90
2023-04-30T07:06:52.773Z,2.50
2023-04-30T07:09:40.557Z,2.78
2023-04-30T07:12:27.996Z,2.30
2023-04-30T07:15:15.412Z,2.50
2023-04-30T07:18:03.921Z,2.70
2023-04-30T07:20:51.432Z,2.65
2023-04-30T07:23:38.831Z,2.70
2023-04-30T07:26:26.499Z,2.72
2023-04-30T07:29:13.900Z,2.53
2023-04-30T07:32:02.039Z,2.47
2023-04-30T07:34:49.600Z,2.60
2023-04-30T07:37:38.548Z,2.67
2023-04-30T07:40:35.981Z,2.85
2023-04-30T07:43:23.998Z,2.53
2023-04-30T07:46:11.462Z,2.40
2023-04-30T07:48:59.492Z,2.45
2023-04-30T07:51:46.952Z,2.15
2023-04-30T07:54:36.436Z,2.20
2023-04-30T07:57:26.449Z,2.33
2023-04-30T08:00:15.073Z,2.22
2023-04-30T08:03:02.567Z,2.40
2023-04-30T08:05:50.072Z,2.00
2023-04-30T08:08:37.518Z,2.00
2023-04-30T08:11:24.923Z,2.22
2023-04-30T08:14:12.287Z,1.98
2023-04-30T08:17:00.861Z,2.70
2023-04-30T08:19:48.513Z,2.45
2023-04-30T08:22:36.346Z,2.50
2023-04-30T08:25:23.709Z,2.75
2023-04-30T08:28:11.054Z,2.20
2023-04-30T08:30:58.530Z,2.15
2023-04-30T08:33:45.880Z,2.80
2023-04-30T08:36:33.320Z,2.50
2023-04-30T08:39:20.660Z,2.03
2023-04-30T08:42:13.423Z,2.88
2023-04-30T08:45:01.904Z,2.50
2023-04-30T08:47:49.941Z,2.10
2023-04-30T08:50:37.379Z,2.33
2023-04-30T08:53:24.747Z,2.38
2023-04-30T08:56:12.358Z,2.45
2023-04-30T08:58:59.722Z,2.17
2023-04-30T09:01:47.638Z,2.10
2023-04-30T09:04:35.224Z,2.38
2023-04-30T09:07:25.316Z,2.60
2023-04-30T09:10:17.616Z,2.55
2023-04-30T09:13:05.940Z,2.70
2023-04-30T09:15:53.388Z,2.72
2023-04-30T09:18:42.138Z,2.50
2023-04-30T09:21:31.786Z,2.53
2023-04-30T09:24:19.168Z,3.20
2023-04-30T09:27:16.490Z,2.35
2023-04-30T09:30:04.572Z,2.30
2023-04-30T09:33:00.751Z,2.72
2023-04-30T09:35:48.840Z,2.47
2023-04-30T09:38:36.197Z,3.05
2023-04-30T09:41:28.427Z,2.55
2023-04-30T09:44:28.734Z,2.53
2023-04-30T09:47:19.757Z,2.40
2023-04-30T09:50:07.523Z,2.28
2023-04-30T09:52:55.714Z,2.85
2023-04-30T09:55:43.733Z,2.60
2023-04-30T09:58:32.559Z,2.50
2023-04-30T10:01:20.390Z,2.50
2023-04-30T10:04:08.143Z,2.50
2023-04-30T10:06:55.789Z,2.67
2023-04-30T10:09:47.107Z,2.83
2023-04-30T10:12:34.508Z,3.05
2023-04-30T10:15:27.036Z,2.80
2023-04-30T10:18:20.092Z,2.58
2023-04-30T10:21:10.345Z,2.67
2023-04-30T10:23:58.388Z,2.60
2023-04-30T10:26:46.246Z,2.70
2023-04-30T10:29:33.709Z,3.03
2023-04-30T10:32:21.543Z,3.30
2023-04-30T10:35:27.820Z,3.05
2023-04-30T10:38:25.804Z,3.13
2023-04-30T10:41:13.323Z,2.85
2023-04-30T10:44:02.586Z,2.80
2023-04-30T10:46:50.051Z,2.88
2023-04-30T10:49:37.494Z,2.70
2023-04-30T10:52:29.502Z,2.45
2023-04-30T10:55:18.420Z,2.90
2023-04-30T10:58:23.653Z,2.67
2023-04-30T11:01:14.787Z,2.80
2023-04-30T11:04:09.857Z,2.95
2023-04-30T11:07:03.698Z,2.80
2023-04-30T11:09:51.832Z,3.00
2023-04-30T11:12:41.711Z,2.80
2023-04-30T11:15:36.641Z,2.85
2023-04-30T11:18:27.859Z,9.07
2023-04-30T11:21:15.273Z,3.28
2023-04-30T11:24:05.876Z,3.33
2023-04-30T11:27:06.387Z,2.85
2023-04-30T11:29:54.380Z,2.92
2023-04-30T11:32:42.553Z,3.58
2023-04-30T11:35:30.068Z,2.97
2023-04-30T11:38:17.929Z,3.25
2023-04-30T11:41:05.696Z,3.05
2023-04-30T11:43:53.036Z,3.00
2023-04-30T11:46:42.583Z,3.53
2023-04-30T11:49:31.159Z,3.00
2023-04-30T11:52:21.502Z,3.05
2023-04-30T11:55:14.002Z,3.15
2023-04-30T11:58:01.399Z,2.67
2023-04-30T12:00:48.859Z,3.00
2023-04-30T12:03:44.028Z,3.03
2023-04-30T12:06:31.659Z,3.45
2023-04-30T12:09:19.222Z,3.00
2023-04-30T12:12:06.588Z,3.13
2023-04-30T12:14:53.931Z,3.03
2023-04-30T12:17:41.547Z,3.08
2023-04-30T12:20:30.358Z,2.80
2023-04-30T12:23:18.096Z,3.42
2023-04-30T12:26:05.519Z,2.70
2023-04-30T12:28:53.252Z,2.83
2023-04-30T12:31:41.300Z,3.20
2023-04-30T12:34:30.574Z,2.83
2023-04-30T12:37:19.669Z,3.15
2023-04-30T12:40:08.326Z,3.38
2023-04-30T12:43:06.033Z,3.30
2023-04-30T12:45:54.363Z,2.83
2023-04-30T12:48:45.662Z,2.90
2023-04-30T12:51:36.384Z,3.70
2023-04-30T12:54:30.577Z,3.10
2023-04-30T12:57:17.989Z,3.10
2023-04-30T13:00:06.040Z,3.25
2023-04-30T13:02:53.502Z,3.23
2023-04-30T13:05:42.115Z,3.00
2023-04-30T13:08:29.559Z,3.22
2023-04-30T13:11:16.910Z,3.07
2023-04-30T13:14:04.309Z,2.85
2023-04-30T13:16:51.758Z,2.65
2023-04-30T13:19:39.101Z,3.20
2023-04-30T13:22:29.486Z,2.92
2023-04-30T13:25:17.593Z,2.90
2023-04-30T13:28:05.284Z,2.97
2023-04-30T13:30:52.832Z,2.67
2023-04-30T13:33:40.229Z,3.28
2023-04-30T13:36:27.632Z,3.00
2023-04-30T13:39:15.068Z,2.70
2023-04-30T13:42:02.597Z,3.05
2023-04-30T13:44:50.041Z,2.88
2023-04-30T13:47:38.302Z,3.58
2023-04-30T13:50:25.766Z,2.95
2023-04-30T13:53:13.211Z,2.78
2023-04-30T13:56:00.692Z,3.08
2023-04-30T13:58:48.138Z,3.30
2023-04-30T14:01:35.495Z,2.80
2023-04-30T14:04:22.839Z,2.67
2023-04-30T14:07:10.209Z,2.97
2023-04-30T14:09:57.573Z,3.42
2023-04-30T14:12:45.060Z,2.85
2023-04-30T14:15:32.873Z,3.35
2023-04-30T14:18:22.561Z,2.78
2023-04-30T14:21:10.093Z,3.08
2023-04-30T14:23:57.483Z,2.60
2023-04-30T14:26:45.749Z,2.80
2023-04-30T14:29:33.141Z,3.00
2023-04-30T14:32:20.639Z,2.55
2023-04-30T14:35:08.509Z,2.87
2023-04-30T14:37:56.010Z,3.20
2023-04-30T14:40:44.299Z,2.90
2023-04-30T14:43:31.697Z,2.80
2023-04-30T14:46:19.633Z,2.83
2023-04-30T14:49:07.107Z,2.97
2023-04-30T14:51:54.827Z,2.85
2023-04-30T14:54:42.205Z,2.90
2023-04-30T14:57:29.696Z,2.90
2023-04-30T15:00:17.237Z,3.03
2023-04-30T15:03:04.724Z,2.83
2023-04-30T15:05:52.307Z,2.87
2023-04-30T15:08:40.642Z,2.70
2023-04-30T15:11:28.090Z,2.57
2023-04-30T15:14:17.233Z,2.73
2023-04-30T15:17:04.627Z,2.83
2023-04-30T15:19:53.447Z,3.30
2023-04-30T15:22:42.144Z,2.63
2023-04-30T15:25:30.323Z,2.77
2023-04-30T15:28:17.988Z,2.57
2023-04-30T15:31:06.403Z,2.80
2023-04-30T15:33:53.858Z,2.30
2023-04-30T15:36:41.283Z,3.17
2023-04-30T15:39:28.679Z,2.97
2023-04-30T15:42:16.024Z,2.60
2023-04-30T15:45:03.853Z,2.53
2023-04-30T15:47:51.540Z,2.83
2023-04-30T15:50:39.083Z,2.63
2023-04-30T15:53:26.521Z,3.10
2023-04-30T15:56:13.964Z,3.03
2023-04-30T15:59:01.785Z,2.57
2023-04-30T16:01:49.177Z,2.60
2023-04-30T16:04:36.846Z,2.80
2023-04-30T16:07:24.325Z,2.80
2023-04-30T16:10:12.014Z,2.40
2023-04-30T16:12:59.378Z,2.63
2023-04-30T16:15:47.476Z,3.13
2023-04-30T16:18:35.335Z,2.80
2023-04-30T16:21:23.764Z,2.80
2023-04-30T16:24:11.357Z,3.10
2023-04-30T16:26:59.133Z,2.97
2023-04-30T16:29:46.520Z,2.90
2023-04-30T16:32:33.972Z,2.97
2023-04-30T16:35:21.374Z,2.80
2023-04-30T16:38:08.822Z,2.50
2023-04-30T16:40:56.579Z,2.67
2023-04-30T16:43:44.530Z,3.10
2023-04-30T16:46:32.005Z,3.10
2023-04-30T16:49:19.517Z,2.37
2023-04-30T16:52:07.227Z,2.50
2023-04-30T16:54:54.742Z,2.90
2023-04-30T16:57:42.313Z,2.77
2023-04-30T17:00:30.183Z,2.70
2023-04-30T17:03:17.650Z,2.60
2023-04-30T17:06:06.395Z,2.70
2023-04-30T17:08:54.097Z,3.00
2023-04-30T17:11:41.815Z,2.67
2023-04-30T17:14:29.223Z,2.70
2023-04-30T17:17:16.645Z,2.63
2023-04-30T17:20:04.106Z,2.73
2023-04-30T17:22:53.186Z,2.70
2023-04-30T17:25:40.548Z,2.50
2023-04-30T17:28:27.984Z,2.97
2023-04-30T17:31:15.551Z,2.93
2023-04-30T17:34:02.986Z,2.63
2023-04-30T17:36:50.351Z,2.93
2023-04-30T17:39:37.721Z,3.00
2023-04-30T17:42:25.263Z,2.67
2023-04-30T17:45:12.648Z,2.80
2023-04-30T17:48:00.203Z,2.73
2023-04-30T17:50:47.706Z,2.10
2023-04-30T17:53:35.074Z,2.63
2023-04-30T17:56:24.676Z,2.63
2023-04-30T17:59:12.498Z,2.17
2023-04-30T18:01:59.976Z,2.60
2023-04-30T18:04:47.366Z,2.60
2023-04-30T18:07:34.739Z,3.03
2023-04-30T18:10:22.112Z,3.60
2023-04-30T18:13:10.690Z,4.07
2023-04-30T18:15:58.133Z,2.93
2023-04-30T18:18:45.545Z,3.83
2023-04-30T18:21:33.504Z,5.47
2023-04-30T18:24:21.577Z,5.30
2023-04-30T18:27:09.321Z,4.00
2023-04-30T18:29:57.023Z,4.10
2023-04-30T18:32:44.660Z,3.90
2023-04-30T18:35:32.551Z,3.37
2023-04-30T18:38:20.536Z,3.43
2023-04-30T18:41:08.073Z,3.20
2023-04-30T18:43:55.785Z,3.47
2023-04-30T18:46:43.138Z,3.10
2023-04-30T18:49:30.459Z,3.63
2023-04-30T18:52:18.008Z,4.80
2023-04-30T18:55:07.318Z,4.40
2023-04-30T18:57:56.333Z,3.83
2023-04-30T19:00:43.843Z,3.90
2023-04-30T19:03:31.839Z,5.13
2023-04-30T19:06:19.459Z,4.17
2023-04-30T19:09:06.912Z,4.57
2023-04-30T19:11:54.381Z,6.37
2023-04-30T19:14:41.986Z,5.73
2023-04-30T19:17:29.404Z,4.37
2023-04-30T19:20:17.226Z,3.77
2023-04-30T19:23:05.057Z,3.60
2023-04-30T19:25:52.399Z,4.00
2023-04-30T19:28:39.816Z,4.13
2023-04-30T19:31:27.200Z,3.63
2023-04-30T19:34:14.683Z,3.77
2023-04-30T19:37:02.025Z,3.60
2023-04-30T19:39:49.404Z,3.60
2023-04-30T19:42:36.927Z,3.40
2023-04-30T19:45:24.287Z,3.57
2023-04-30T19:48:11.699Z,3.50
2023-04-30T19:50:59.097Z,3.73
2023-04-30T19:53:46.651Z,3.57
2023-04-30T19:56:34.036Z,4.40
2023-04-30T19:59:21.527Z,4.50
2023-04-30T20:02:09.518Z,3.70
2023-04-30T20:04:58.133Z,3.77
2023-04-30T20:07:45.489Z,3.90
2023-04-30T20:10:34.100Z,3.80
2023-04-30T20:13:24.301Z,3.70
2023-04-30T20:16:12.582Z,4.33
2023-04-30T20:19:00.166Z,3.93
2023-04-30T20:21:49.185Z,3.93
2023-04-30T20:24:36.599Z,4.67
2023-04-30T20:27:25.497Z,5.10
2023-04-30T20:30:13.326Z,4.37
2023-04-30T20:33:00.934Z,4.00
2023-04-30T20:35:48.392Z,3.70
2023-04-30T20:38:36.077Z,4.80
2023-04-30T20:41:23.569Z,4.20
2023-04-30T20:44:11.395Z,4.30
2023-04-30T20:46:58.804Z,4.63
2023-04-30T20:49:46.222Z,4.33
2023-04-30T20:52:33.703Z,4.60
2023-04-30T20:55:21.125Z,4.30
2023-04-30T20:58:09.223Z,4.67
2023-04-30T21:00:56.760Z,4.60
2023-04-30T21:03:44.208Z,4.30
2023-04-30T21:06:32.115Z,4.53
2023-04-30T21:09:19.464Z,5.10
2023-04-30T21:12:06.811Z,4.70
2023-04-30T21:14:55.018Z,4.63
2023-04-30T21:17:42.400Z,4.60
2023-04-30T21:20:31.212Z,4.87
2023-04-30T21:23:19.036Z,4.57
2023-04-30T21:26:06.464Z,4.63
2023-04-30T21:28:53.964Z,4.93
2023-04-30T21:31:41.321Z,4.83
2023-04-30T21:34:32.132Z,5.70
2023-04-30T21:37:19.501Z,4.93
2023-04-30T21:40:07.553Z,4.20
2023-04-30T21:42:54.946Z,4.97
2023-04-30T21:45:43.486Z,5.10
2023-04-30T21:48:31.017Z,4.70
2023-04-30T21:51:18.532Z,4.73
2023-04-30T21:54:06.027Z,5.20
2023-04-30T21:56:53.428Z,4.33
2023-04-30T21:59:41.922Z,4.43
2023-04-30T22:02:29.720Z,5.30
2023-04-30T22:05:18.856Z,4.40
2023-04-30T22:08:06.362Z,5.00
2023-04-30T22:11:00.297Z,5.00
2023-04-30T22:13:47.856Z,4.50
2023-04-30T22:16:35.510Z,5.20
2023-04-30T22:19:22.926Z,5.10
2023-04-30T22:22:11.329Z,4.73
2023-04-30T22:24:59.396Z,5.57
2023-04-30T22:27:47.153Z,5.07
2023-04-30T22:30:34.538Z,4.90
2023-04-30T22:33:22.460Z,5.00
2023-04-30T22:36:10.356Z,5.20
2023-04-30T22:38:58.569Z,5.07
2023-04-30T22:41:46.433Z,5.40
2023-04-30T22:44:34.331Z,5.60
2023-04-30T22:47:21.750Z,6.07
2023-04-30T22:50:09.334Z,5.17
2023-04-30T22:52:56.758Z,5.57
2023-04-30T22:55:44.376Z,5.33
2023-04-30T22:58:31.712Z,5.23
2023-04-30T23:01:20.032Z,5.13
2023-04-30T23:04:07.475Z,5.00
2023-04-30T23:06:54.889Z,5.17
2023-04-30T23:09:43.095Z,5.37
2023-04-30T23:12:30.474Z,5.40
2023-04-30T23:15:18.250Z,6.10
2023-04-30T23:18:06.396Z,5.83
2023-04-30T23:20:58.755Z,5.27
2023-04-30T23:23:46.278Z,5.53
2023-04-30T23:26:33.631Z,5.30
2023-04-30T23:29:21.200Z,5.07
2023-04-30T23:32:08.598Z,5.63
2023-04-30T23:34:56.058Z,5.30
2023-04-30T23:37:43.409Z,5.43
2023-04-30T23:40:30.894Z,5.50
2023-04-30T23:43:18.262Z,5.90
2023-04-30T23:46:06.028Z,5.60
2023-04-30T23:48:53.438Z,6.00
2023-04-30T23:51:41.035Z,5.20
2023-04-30T23:54:28.645Z,5.50
2023-04-30T23:57:16.355Z,5.80
